AirNav   Bose Proflight or Bose A20?
 
 1435 users online  

08FL J H Hendrie Farms Airport
Lake Placid, Florida, USA

GOING TO LAKE PLACID?


FAA INFORMATION EFFECTIVE 20 JUNE 2019

Location

FAA Identifier: 08FL
Lat/Long: 27-05-04.1890N / 081-19-43.2600W
27-05.069817N / 081-19.721000W
27.0844969 / -81.3286833
(estimated)
Elevation: 103 ft. / 31 m (estimated)
Variation: 03W (1990)
From city: 17 miles S of LAKE PLACID, FL
Time zone: UTC -4 (UTC -5 during Standard Time)
Zip code: 33960

Airport Operations

Airport use: Private use. Permission required prior to landing
Activation date: 04/1993
Control tower: no
ARTCC: MIAMI CENTER
FSS: SAINT PETERSBURG FLIGHT SERVICE STATION
Attendance: UNATNDD
Segmented circle: no

Nearby radio navigation aids

VOR radial/distance  VOR name  Freq  Var
LBVr011/15.7LA BELLE VORTAC110.4001E
PGDr080/(36.8)PUNTA GORDA VOR110.2006W
PHKr298/38.6PAHOKEE VOR/DME115.4000E

Airport Services

Runway Information

Runway 3/21

Dimensions: 2500 x 100 ft. / 762 x 30 m
Surface: turf
RUNWAY 3  RUNWAY 21
Traffic pattern: leftleft

Airport Ownership and Management from official FAA records

Ownership: Privately-owned
Owner: JAMES H. HENDRIE
PO BOX 358
VENUS, FL 33960

Airport Operational Statistics

Aircraft based on the field: 1
Single engine airplanes: 1
    

Additional Remarks

FOR CD CTC MIAMI ARTCC AT 305-716-1731.

Instrument Procedures

There are no published instrument procedures at 08FL.

Some nearby airports with instrument procedures:

X14 - La Belle Municipal Airport (21 nm S)
KSEF - Sebring Regional Airport (22 nm N)
2IS - Airglades Airport (26 nm SE)
KOBE - Okeechobee County Airport (28 nm NE)
X06 - Arcadia Municipal Airport (28 nm W)
 
Loc | Ops | Rwys | IFR | FBO | Links
Com | Nav | Svcs | Stats | Notes

Reliance Aviation
AirBoss

 
Area around 08FL (J H Hendrie Farms Airport)
 
Road maps at: MapQuest Bing Google
 
Aerial photo
No photo
 
Sectional chart

 
Airport distance calculator
Flying to J H Hendrie Farms Airport? Find the distance to fly.

From to 08FL

Sunrise and sunset
Times for 20-Jun-2019
 Local
(UTC-4)
 Zulu
(UTC)
Morning civil twilight06:0610:06
Sunrise06:3210:32
Sunset20:2100:21
Evening civil twilight20:4800:48

Current date and time
Zulu (UTC)  20-Jun-2019 14:13:32
Local (UTC-4)  20-Jun-2019 10:13:32
 
METAR
KSEF 
22nm N 
201355Z AUTO 21009KT 10SM BKN015 29/26 A3007 RMK AO2 T02910258
KOBE 
28nm NE 
201355Z AUTO 23007KT 10SM BKN014 BKN021 BKN033 28/25 A3008 RMK AO2
KAGR 
34nm N 
191458Z AUTO 21007KT 10SM VCTS FEW085 OVC200 26/23 A3003 RMK AO2 RAB08E18 SLP170 P0000 60005 T02630228 58004 $
KPGD 
37nm W 
201353Z 24010KT 10SM SCT026 30/25 A3007 RMK AO2 SLP184 T03000250
KIMM 
39nm S 
201400Z AUTO 17006KT 10SM SCT018 SCT025 BKN034 32/26 A3005 RMK AO2
KRSW 
41nm SW 
201402Z 17006KT 10SM BKN015 32/25 A3006 RMK AO2 T03220250
KFMY 
42nm SW 
201353Z 23006KT 10SM SCT022 31/26 A3006 RMK AO2 SLP180 T03170261
TAF
KPGD 
37nm W 
201123Z 2012/2112 14004KT P6SM FEW025 SCT200 FM201600 23008KT P6SM FEW025 SCT200 FM202000 25011KT P6SM FEW030 SCT250 FM210000 25005KT P6SM FEW250
KRSW 
41nm SW 
201123Z 2012/2112 VRB03KT P6SM FEW025 SCT250 FM201500 22006KT P6SM FEW025 SCT250 FM202100 25008KT P6SM SCT030 SCT250 FM210800 26004KT P6SM FEW200
KFMY 
42nm SW 
201123Z 2012/2112 14004KT P6SM FEW025 SCT200 FM201500 22006KT P6SM FEW025 SCT250 FM202100 25008KT P6SM SCT030 SCT250 FM210800 26004KT P6SM FEW200
NOTAMs
Click for the latest NOTAMs
NOTAMs are issued by the DoD/FAA and will open in a separate window not controlled by AirNav.

 

 
 

Would you like to see your business listed on this page?

 If your business provides an interesting product or service to pilots, flight crews, aircraft, or users of the J H Hendrie Farms Airport, you should consider listing it here.  To start the listing process, click on the button below
 
Add a business
 

Other Pages about J H Hendrie Farms Airport

Update a link
 
Copyright © AirNav, LLC. All rights reserved. Privacy Policy  Contact